sensor_id;sensor_type;location;lat;lon;timestamp;P1;durP1;ratioP1;P2;durP2;ratioP2
53753;SDS011;39667;52.274;20.964;2023-02-02T07:38:36;8.00;;;4.10;;
53753;SDS011;39667;52.274;20.964;2023-02-02T07:41:05;5.30;;;3.80;;
53753;SDS011;39667;52.274;20.964;2023-02-02T07:43:32;4.90;;;3.00;;
53753;SDS011;39667;52.274;20.964;2023-02-02T07:46:01;6.00;;;3.60;;
53753;SDS011;39667;52.274;20.964;2023-02-02T07:48:30;7.40;;;3.80;;
53753;SDS011;39667;52.274;20.964;2023-02-02T07:50:58;7.50;;;4.20;;
53753;SDS011;39667;52.274;20.964;2023-02-02T07:53:26;7.50;;;4.50;;
53753;SDS011;39667;52.274;20.964;2023-02-02T07:58:44;4.60;;;3.40;;
53753;SDS011;39667;52.274;20.964;2023-02-02T08:01:17;9.40;;;4.20;;
53753;SDS011;39667;52.274;20.964;2023-02-02T08:03:48;7.10;;;3.80;;
53753;SDS011;39667;52.274;20.964;2023-02-02T08:06:17;6.40;;;3.70;;
53753;SDS011;39667;52.274;20.964;2023-02-02T08:09:06;8.70;;;4.40;;
53753;SDS011;39667;52.274;20.964;2023-02-02T08:11:35;5.30;;;3.40;;
53753;SDS011;39667;52.274;20.964;2023-02-02T08:14:04;7.50;;;3.80;;
53753;SDS011;39667;52.274;20.964;2023-02-02T08:16:33;4.40;;;3.80;;
53753;SDS011;39667;52.274;20.964;2023-02-02T08:19:01;4.40;;;2.80;;
53753;SDS011;39667;52.274;20.964;2023-02-02T08:27:43;4.10;;;3.10;;
53753;SDS011;39667;52.274;20.964;2023-02-02T08:37:23;4.50;;;3.00;;
53753;SDS011;39667;52.274;20.964;2023-02-02T08:39:49;2.90;;;2.50;;
53753;SDS011;39667;52.274;20.964;2023-02-02T08:42:17;5.90;;;2.90;;
53753;SDS011;39667;52.274;20.964;2023-02-02T08:44:46;3.90;;;2.50;;
53753;SDS011;39667;52.274;20.964;2023-02-02T08:47:33;4.40;;;2.50;;
53753;SDS011;39667;52.274;20.964;2023-02-02T08:50:54;5.80;;;3.50;;
53753;SDS011;39667;52.274;20.964;2023-02-02T09:05:21;6.00;;;3.50;;
53753;SDS011;39667;52.274;20.964;2023-02-02T09:14:31;6.10;;;3.00;;
53753;SDS011;39667;52.274;20.964;2023-02-02T09:16:58;5.50;;;3.70;;
53753;SDS011;39667;52.274;20.964;2023-02-02T09:19:25;3.50;;;2.70;;
53753;SDS011;39667;52.274;20.964;2023-02-02T09:21:53;3.20;;;2.50;;
53753;SDS011;39667;52.274;20.964;2023-02-02T09:24:28;6.20;;;3.60;;
53753;SDS011;39667;52.274;20.964;2023-02-02T09:26:55;3.80;;;2.80;;
53753;SDS011;39667;52.274;20.964;2023-02-02T09:29:23;3.60;;;3.20;;
53753;SDS011;39667;52.274;20.964;2023-02-02T09:31:49;6.00;;;3.20;;
53753;SDS011;39667;52.274;20.964;2023-02-02T09:34:17;4.20;;;3.20;;
53753;SDS011;39667;52.274;20.964;2023-02-02T09:36:43;3.50;;;2.70;;
53753;SDS011;39667;52.274;20.964;2023-02-02T09:39:10;4.20;;;3.20;;
53753;SDS011;39667;52.274;20.964;2023-02-02T09:55:43;4.80;;;3.60;;
53753;SDS011;39667;52.274;20.964;2023-02-02T09:58:26;4.30;;;3.40;;
53753;SDS011;39667;52.274;20.964;2023-02-02T10:01:08;4.00;;;3.00;;
53753;SDS011;39667;52.274;20.964;2023-02-02T10:15:03;4.20;;;3.00;;
53753;SDS011;39667;52.274;20.964;2023-02-02T10:17:47;3.80;;;3.20;;
53753;SDS011;39667;52.274;20.964;2023-02-02T10:34:48;7.30;;;4.30;;
53753;SDS011;39667;52.274;20.964;2023-02-02T10:46:37;4.30;;;3.50;;
53753;SDS011;39667;52.274;20.964;2023-02-02T10:49:11;4.20;;;3.40;;
53753;SDS011;39667;52.274;20.964;2023-02-02T10:52:27;4.20;;;3.30;;
53753;SDS011;39667;52.274;20.964;2023-02-02T10:57:50;5.60;;;3.30;;
53753;SDS011;39667;52.274;20.964;2023-02-02T11:02:51;3.90;;;2.80;;
53753;SDS011;39667;52.274;20.964;2023-02-02T11:05:19;6.10;;;4.30;;
53753;SDS011;39667;52.274;20.964;2023-02-02T11:11:10;4.90;;;3.40;;
53753;SDS011;39667;52.274;20.964;2023-02-02T11:13:40;5.70;;;3.20;;
53753;SDS011;39667;52.274;20.964;2023-02-02T11:18:40;6.20;;;4.10;;
53753;SDS011;39667;52.274;20.964;2023-02-02T11:21:17;6.20;;;3.80;;
53753;SDS011;39667;52.274;20.964;2023-02-02T11:26:54;7.30;;;4.60;;
53753;SDS011;39667;52.274;20.964;2023-02-02T11:29:52;5.60;;;4.20;;
53753;SDS011;39667;52.274;20.964;2023-02-02T11:32:28;6.90;;;5.00;;
53753;SDS011;39667;52.274;20.964;2023-02-02T11:37:53;9.10;;;6.00;;
53753;SDS011;39667;52.274;20.964;2023-02-02T11:46:02;6.90;;;5.70;;
53753;SDS011;39667;52.274;20.964;2023-02-02T11:48:33;8.40;;;6.60;;
53753;SDS011;39667;52.274;20.964;2023-02-02T11:51:03;9.20;;;6.30;;
53753;SDS011;39667;52.274;20.964;2023-02-02T11:53:46;7.20;;;6.10;;
53753;SDS011;39667;52.274;20.964;2023-02-02T11:56:52;9.90;;;7.30;;
53753;SDS011;39667;52.274;20.964;2023-02-02T11:59:32;11.20;;;8.30;;
53753;SDS011;39667;52.274;20.964;2023-02-02T12:07:55;11.10;;;8.20;;
53753;SDS011;39667;52.274;20.964;2023-02-02T12:10:31;13.90;;;8.10;;
53753;SDS011;39667;52.274;20.964;2023-02-02T12:21:06;11.00;;;7.40;;
53753;SDS011;39667;52.274;20.964;2023-02-02T12:23:53;10.90;;;7.00;;
53753;SDS011;39667;52.274;20.964;2023-02-02T12:26:26;7.90;;;6.80;;
53753;SDS011;39667;52.274;20.964;2023-02-02T12:29:02;12.50;;;7.60;;
53753;SDS011;39667;52.274;20.964;2023-02-02T12:34:10;7.10;;;5.90;;
53753;SDS011;39667;52.274;20.964;2023-02-02T12:39:32;9.40;;;6.50;;
53753;SDS011;39667;52.274;20.964;2023-02-02T12:47:28;6.40;;;4.40;;
53753;SDS011;39667;52.274;20.964;2023-02-02T12:50:03;6.60;;;5.60;;
53753;SDS011;39667;52.274;20.964;2023-02-02T13:00:45;11.10;;;6.60;;
53753;SDS011;39667;52.274;20.964;2023-02-02T13:03:30;9.30;;;5.50;;
53753;SDS011;39667;52.274;20.964;2023-02-02T13:09:29;5.10;;;4.10;;
53753;SDS011;39667;52.274;20.964;2023-02-02T13:12:07;5.20;;;3.30;;
53753;SDS011;39667;52.274;20.964;2023-02-02T13:14:40;4.30;;;3.20;;
53753;SDS011;39667;52.274;20.964;2023-02-02T13:17:29;4.00;;;3.10;;
53753;SDS011;39667;52.274;20.964;2023-02-02T13:20:05;2.80;;;2.60;;
53753;SDS011;39667;52.274;20.964;2023-02-02T13:22:56;2.40;;;2.20;;
53753;SDS011;39667;52.274;20.964;2023-02-02T13:25:29;4.40;;;3.50;;
53753;SDS011;39667;52.274;20.964;2023-02-02T13:27:59;5.40;;;3.50;;
53753;SDS011;39667;52.274;20.964;2023-02-02T13:30:33;4.80;;;3.30;;
53753;SDS011;39667;52.274;20.964;2023-02-02T13:33:26;3.30;;;2.70;;
53753;SDS011;39667;52.274;20.964;2023-02-02T13:36:14;4.40;;;3.20;;
53753;SDS011;39667;52.274;20.964;2023-02-02T13:38:57;3.40;;;2.80;;
53753;SDS011;39667;52.274;20.964;2023-02-02T13:41:27;4.30;;;2.80;;
53753;SDS011;39667;52.274;20.964;2023-02-02T13:46:34;4.00;;;3.30;;
53753;SDS011;39667;52.274;20.964;2023-02-02T14:00:27;4.20;;;3.20;;
53753;SDS011;39667;52.274;20.964;2023-02-02T14:02:59;5.70;;;6.60;;
53753;SDS011;39667;52.274;20.964;2023-02-02T14:05:30;5.50;;;3.90;;
53753;SDS011;39667;52.274;20.964;2023-02-02T14:08:02;5.50;;;4.00;;
53753;SDS011;39667;52.274;20.964;2023-02-02T14:13:12;4.90;;;3.40;;
53753;SDS011;39667;52.274;20.964;2023-02-02T14:16:01;7.20;;;4.60;;
53753;SDS011;39667;52.274;20.964;2023-02-02T14:24:35;5.40;;;3.80;;
53753;SDS011;39667;52.274;20.964;2023-02-02T14:26:56;6.10;;;3.60;;
53753;SDS011;39667;52.274;20.964;2023-02-02T14:32:29;6.90;;;4.90;;
53753;SDS011;39667;52.274;20.964;2023-02-02T14:38:03;7.50;;;2.80;;
53753;SDS011;39667;52.274;20.964;2023-02-02T14:44:09;7.40;;;3.80;;
53753;SDS011;39667;52.274;20.964;2023-02-02T14:46:36;3.20;;;2.40;;
53753;SDS011;39667;52.274;20.964;2023-02-02T14:49:09;4.50;;;2.90;;
53753;SDS011;39667;52.274;20.964;2023-02-02T14:51:47;4.40;;;2.70;;
53753;SDS011;39667;52.274;20.964;2023-02-02T14:54:24;5.10;;;2.90;;
53753;SDS011;39667;52.274;20.964;2023-02-02T14:56:57;5.70;;;2.60;;
53753;SDS011;39667;52.274;20.964;2023-02-02T14:59:30;5.40;;;3.20;;
53753;SDS011;39667;52.274;20.964;2023-02-02T15:08:05;8.70;;;4.30;;
53753;SDS011;39667;52.274;20.964;2023-02-02T15:13:21;8.70;;;4.00;;
53753;SDS011;39667;52.274;20.964;2023-02-02T15:15:50;4.70;;;3.20;;
53753;SDS011;39667;52.274;20.964;2023-02-02T15:18:31;5.80;;;3.00;;
53753;SDS011;39667;52.274;20.964;2023-02-02T15:21:04;4.50;;;2.40;;
53753;SDS011;39667;52.274;20.964;2023-02-02T15:23:34;6.80;;;3.70;;
53753;SDS011;39667;52.274;20.964;2023-02-02T15:26:13;5.90;;;2.70;;
53753;SDS011;39667;52.274;20.964;2023-02-02T15:28:57;3.20;;;2.10;;
53753;SDS011;39667;52.274;20.964;2023-02-02T15:34:24;1.60;;;1.30;;
53753;SDS011;39667;52.274;20.964;2023-02-02T15:37:03;3.70;;;1.50;;
53753;SDS011;39667;52.274;20.964;2023-02-02T15:39:37;2.60;;;1.40;;
53753;SDS011;39667;52.274;20.964;2023-02-02T15:42:12;3.50;;;1.50;;
53753;SDS011;39667;52.274;20.964;2023-02-02T15:46:06;2.90;;;1.60;;
53753;SDS011;39667;52.274;20.964;2023-02-02T15:52:11;2.50;;;1.70;;
53753;SDS011;39667;52.274;20.964;2023-02-02T15:54:54;2.70;;;1.80;;
53753;SDS011;39667;52.274;20.964;2023-02-02T15:57:32;2.60;;;2.00;;
53753;SDS011;39667;52.274;20.964;2023-02-02T16:02:48;3.80;;;2.70;;
53753;SDS011;39667;52.274;20.964;2023-02-02T16:14:03;7.50;;;2.90;;
53753;SDS011;39667;52.274;20.964;2023-02-02T16:20:09;6.00;;;3.70;;
53753;SDS011;39667;52.274;20.964;2023-02-02T16:22:55;8.10;;;4.10;;
53753;SDS011;39667;52.274;20.964;2023-02-02T16:25:29;8.30;;;4.70;;
53753;SDS011;39667;52.274;20.964;2023-02-02T16:31:33;7.60;;;3.90;;
53753;SDS011;39667;52.274;20.964;2023-02-02T16:34:42;8.80;;;4.60;;
53753;SDS011;39667;52.274;20.964;2023-02-02T16:37:16;8.20;;;4.00;;
53753;SDS011;39667;52.274;20.964;2023-02-02T16:43:31;8.00;;;4.50;;
53753;SDS011;39667;52.274;20.964;2023-02-02T16:46:44;10.70;;;5.80;;
53753;SDS011;39667;52.274;20.964;2023-02-02T16:53:00;9.60;;;5.80;;
53753;SDS011;39667;52.274;20.964;2023-02-02T16:56:36;8.00;;;4.70;;
53753;SDS011;39667;52.274;20.964;2023-02-02T16:59:22;7.90;;;4.60;;
53753;SDS011;39667;52.274;20.964;2023-02-02T17:05:05;10.10;;;5.30;;
53753;SDS011;39667;52.274;20.964;2023-02-02T17:07:52;7.80;;;4.60;;
53753;SDS011;39667;52.274;20.964;2023-02-02T17:10:27;6.90;;;4.00;;
53753;SDS011;39667;52.274;20.964;2023-02-02T17:13:33;7.90;;;3.50;;
53753;SDS011;39667;52.274;20.964;2023-02-02T17:15:58;6.40;;;4.10;;
53753;SDS011;39667;52.274;20.964;2023-02-02T17:24:24;6.20;;;4.00;;
53753;SDS011;39667;52.274;20.964;2023-02-02T17:26:52;9.80;;;5.60;;
53753;SDS011;39667;52.274;20.964;2023-02-02T17:29:20;10.30;;;6.20;;
53753;SDS011;39667;52.274;20.964;2023-02-02T17:32:03;14.20;;;7.80;;
53753;SDS011;39667;52.274;20.964;2023-02-02T17:34:32;7.50;;;4.60;;
53753;SDS011;39667;52.274;20.964;2023-02-02T17:36:59;8.50;;;5.30;;
53753;SDS011;39667;52.274;20.964;2023-02-02T17:45:29;15.40;;;6.20;;
53753;SDS011;39667;52.274;20.964;2023-02-02T17:48:02;13.30;;;7.50;;
53753;SDS011;39667;52.274;20.964;2023-02-02T17:50:49;12.30;;;6.70;;
53753;SDS011;39667;52.274;20.964;2023-02-02T17:53:43;12.00;;;6.40;;
53753;SDS011;39667;52.274;20.964;2023-02-02T17:56:12;12.50;;;6.30;;
53753;SDS011;39667;52.274;20.964;2023-02-02T17:58:40;12.10;;;6.60;;
53753;SDS011;39667;52.274;20.964;2023-02-02T18:01:09;10.70;;;6.30;;
53753;SDS011;39667;52.274;20.964;2023-02-02T18:03:39;8.60;;;5.10;;
53753;SDS011;39667;52.274;20.964;2023-02-02T18:06:11;8.60;;;5.80;;
53753;SDS011;39667;52.274;20.964;2023-02-02T18:08:40;7.90;;;5.00;;
53753;SDS011;39667;52.274;20.964;2023-02-02T18:11:09;7.60;;;4.80;;
53753;SDS011;39667;52.274;20.964;2023-02-02T18:13:38;6.00;;;4.00;;
53753;SDS011;39667;52.274;20.964;2023-02-02T18:16:08;9.60;;;5.40;;
53753;SDS011;39667;52.274;20.964;2023-02-02T18:18:36;6.60;;;4.60;;
53753;SDS011;39667;52.274;20.964;2023-02-02T18:21:08;5.40;;;3.70;;
53753;SDS011;39667;52.274;20.964;2023-02-02T18:35:16;18.40;;;9.80;;
53753;SDS011;39667;52.274;20.964;2023-02-02T18:37:44;11.20;;;6.70;;
53753;SDS011;39667;52.274;20.964;2023-02-02T18:40:11;12.80;;;6.60;;
53753;SDS011;39667;52.274;20.964;2023-02-02T18:49:00;8.90;;;5.20;;
53753;SDS011;39667;52.274;20.964;2023-02-02T18:51:27;8.00;;;5.10;;
53753;SDS011;39667;52.274;20.964;2023-02-02T18:53:56;7.70;;;4.30;;
53753;SDS011;39667;52.274;20.964;2023-02-02T18:56:27;10.00;;;4.50;;
53753;SDS011;39667;52.274;20.964;2023-02-02T18:58:59;8.10;;;4.50;;
53753;SDS011;39667;52.274;20.964;2023-02-02T19:01:28;7.00;;;4.40;;
53753;SDS011;39667;52.274;20.964;2023-02-02T19:03:57;6.10;;;3.70;;
53753;SDS011;39667;52.274;20.964;2023-02-02T19:06:34;5.90;;;4.00;;
53753;SDS011;39667;52.274;20.964;2023-02-02T19:09:22;7.20;;;4.00;;
53753;SDS011;39667;52.274;20.964;2023-02-02T19:12:15;6.30;;;3.90;;
53753;SDS011;39667;52.274;20.964;2023-02-02T19:14:52;5.50;;;3.70;;
53753;SDS011;39667;52.274;20.964;2023-02-02T19:17:49;6.30;;;4.00;;
53753;SDS011;39667;52.274;20.964;2023-02-02T19:27:01;7.20;;;4.00;;
53753;SDS011;39667;52.274;20.964;2023-02-02T19:29:57;6.10;;;3.50;;
53753;SDS011;39667;52.274;20.964;2023-02-02T19:32:48;7.40;;;3.70;;
53753;SDS011;39667;52.274;20.964;2023-02-02T19:35:22;4.20;;;3.00;;
53753;SDS011;39667;52.274;20.964;2023-02-02T19:47:02;4.10;;;3.60;;
53753;SDS011;39667;52.274;20.964;2023-02-02T20:05:49;4.40;;;3.00;;
53753;SDS011;39667;52.274;20.964;2023-02-02T20:08:34;5.50;;;3.50;;
53753;SDS011;39667;52.274;20.964;2023-02-02T20:14:52;7.70;;;5.00;;
53753;SDS011;39667;52.274;20.964;2023-02-02T20:34:48;5.50;;;3.80;;
53753;SDS011;39667;52.274;20.964;2023-02-02T20:44:19;7.90;;;4.70;;
53753;SDS011;39667;52.274;20.964;2023-02-02T20:47:17;4.90;;;3.60;;
53753;SDS011;39667;52.274;20.964;2023-02-02T20:50:05;6.50;;;4.00;;
53753;SDS011;39667;52.274;20.964;2023-02-02T20:53:20;3.90;;;3.30;;
53753;SDS011;39667;52.274;20.964;2023-02-02T20:56:49;4.60;;;3.40;;
53753;SDS011;39667;52.274;20.964;2023-02-02T20:59:18;5.70;;;3.60;;
53753;SDS011;39667;52.274;20.964;2023-02-02T21:03:15;5.70;;;3.90;;
53753;SDS011;39667;52.274;20.964;2023-02-02T21:06:03;5.00;;;3.40;;
53753;SDS011;39667;52.274;20.964;2023-02-02T21:09:00;4.90;;;4.20;;
53753;SDS011;39667;52.274;20.964;2023-02-02T21:12:51;4.60;;;4.10;;
53753;SDS011;39667;52.274;20.964;2023-02-02T21:15:22;4.80;;;3.50;;
53753;SDS011;39667;52.274;20.964;2023-02-02T21:18:39;6.60;;;4.50;;
53753;SDS011;39667;52.274;20.964;2023-02-02T21:22:15;8.40;;;4.40;;
53753;SDS011;39667;52.274;20.964;2023-02-02T21:24:47;5.90;;;4.30;;
53753;SDS011;39667;52.274;20.964;2023-02-02T21:27:16;7.70;;;4.30;;
53753;SDS011;39667;52.274;20.964;2023-02-02T21:29:44;6.90;;;4.00;;
53753;SDS011;39667;52.274;20.964;2023-02-02T21:32:34;8.60;;;4.70;;
53753;SDS011;39667;52.274;20.964;2023-02-02T21:35:06;6.20;;;4.10;;
53753;SDS011;39667;52.274;20.964;2023-02-02T21:37:43;6.10;;;4.30;;
53753;SDS011;39667;52.274;20.964;2023-02-02T21:41:27;5.60;;;3.90;;
53753;SDS011;39667;52.274;20.964;2023-02-02T21:49:35;3.90;;;3.30;;
53753;SDS011;39667;52.274;20.964;2023-02-02T22:05:38;4.80;;;3.80;;
53753;SDS011;39667;52.274;20.964;2023-02-02T22:08:08;7.70;;;4.70;;
53753;SDS011;39667;52.274;20.964;2023-02-02T22:11:40;6.30;;;4.60;;
53753;SDS011;39667;52.274;20.964;2023-02-02T22:18:12;7.10;;;3.90;;
53753;SDS011;39667;52.274;20.964;2023-02-02T22:21:47;6.80;;;4.60;;
53753;SDS011;39667;52.274;20.964;2023-02-02T22:28:35;5.70;;;4.20;;
53753;SDS011;39667;52.274;20.964;2023-02-02T22:32:24;6.70;;;4.70;;
53753;SDS011;39667;52.274;20.964;2023-02-02T22:36:15;7.80;;;4.80;;
53753;SDS011;39667;52.274;20.964;2023-02-02T22:38:43;7.70;;;5.20;;
53753;SDS011;39667;52.274;20.964;2023-02-02T22:41:24;6.10;;;3.70;;
53753;SDS011;39667;52.274;20.964;2023-02-02T22:50:41;6.80;;;3.20;;
53753;SDS011;39667;52.274;20.964;2023-02-02T22:53:14;5.70;;;4.20;;
53753;SDS011;39667;52.274;20.964;2023-02-02T22:55:43;4.50;;;3.20;;
53753;SDS011;39667;52.274;20.964;2023-02-02T22:58:15;3.60;;;3.10;;
53753;SDS011;39667;52.274;20.964;2023-02-02T23:00:43;4.60;;;3.30;;
53753;SDS011;39667;52.274;20.964;2023-02-02T23:03:16;4.30;;;3.40;;
53753;SDS011;39667;52.274;20.964;2023-02-02T23:05:51;5.10;;;3.40;;
53753;SDS011;39667;52.274;20.964;2023-02-02T23:08:21;3.90;;;3.10;;
53753;SDS011;39667;52.274;20.964;2023-02-02T23:10:50;5.50;;;3.50;;
53753;SDS011;39667;52.274;20.964;2023-02-02T23:13:18;4.80;;;3.50;;
53753;SDS011;39667;52.274;20.964;2023-02-02T23:15:48;4.50;;;3.30;;
53753;SDS011;39667;52.274;20.964;2023-02-02T23:18:17;5.30;;;3.20;;
53753;SDS011;39667;52.274;20.964;2023-02-02T23:20:46;3.90;;;3.10;;
53753;SDS011;39667;52.274;20.964;2023-02-02T23:23:35;4.10;;;3.50;;
53753;SDS011;39667;52.274;20.964;2023-02-02T23:26:49;5.40;;;3.30;;
53753;SDS011;39667;52.274;20.964;2023-02-02T23:30:03;4.30;;;3.60;;
53753;SDS011;39667;52.274;20.964;2023-02-02T23:32:39;4.60;;;3.50;;
53753;SDS011;39667;52.274;20.964;2023-02-02T23:35:17;4.00;;;3.20;;
53753;SDS011;39667;52.274;20.964;2023-02-02T23:37:53;4.80;;;3.90;;
53753;SDS011;39667;52.274;20.964;2023-02-02T23:40:32;3.90;;;3.50;;
53753;SDS011;39667;52.274;20.964;2023-02-02T23:43:01;6.10;;;4.30;;
53753;SDS011;39667;52.274;20.964;2023-02-02T23:45:29;5.20;;;3.50;;
53753;SDS011;39667;52.274;20.964;2023-02-02T23:47:59;4.90;;;3.90;;
53753;SDS011;39667;52.274;20.964;2023-02-02T23:50:52;3.90;;;3.30;;
53753;SDS011;39667;52.274;20.964;2023-02-02T23:53:31;3.70;;;3.20;;
53753;SDS011;39667;52.274;20.964;2023-02-02T23:56:04;4.60;;;3.50;;
53753;SDS011;39667;52.274;20.964;2023-02-02T23:58:33;4.10;;;3.30;;
